sensor_id;sensor_type;location;lat;lon;timestamp;pressure;altitude;pressure_sealevel;temperature;humidity
23176;BME280;19910;42.652;23.332;2024-02-15T00:02:19;94985.47;;;4.42;74.39
23176;BME280;19910;42.652;23.332;2024-02-15T00:04:46;94989.75;;;4.43;74.25
23176;BME280;19910;42.652;23.332;2024-02-15T00:07:13;94993.06;;;4.29;74.29
23176;BME280;19910;42.652;23.332;2024-02-15T00:09:39;94990.88;;;4.37;75.23
23176;BME280;19910;42.652;23.332;2024-02-15T00:12:06;95000.28;;;4.34;74.20
23176;BME280;19910;42.652;23.332;2024-02-15T00:14:33;94987.97;;;4.33;74.22
23176;BME280;19910;42.652;23.332;2024-02-15T00:17:01;94993.31;;;4.33;74.01
23176;BME280;19910;42.652;23.332;2024-02-15T00:19:28;94994.13;;;4.34;73.75
23176;BME280;19910;42.652;23.332;2024-02-15T00:21:58;94998.34;;;4.40;74.09
23176;BME280;19910;42.652;23.332;2024-02-15T00:24:25;95000.59;;;4.27;74.06
23176;BME280;19910;42.652;23.332;2024-02-15T00:26:54;94987.25;;;4.22;75.25
23176;BME280;19910;42.652;23.332;2024-02-15T00:29:21;95010.75;;;4.31;74.30
23176;BME280;19910;42.652;23.332;2024-02-15T00:31:48;95002.16;;;4.34;74.13
23176;BME280;19910;42.652;23.332;2024-02-15T00:34:17;95003.25;;;4.33;74.30
23176;BME280;19910;42.652;23.332;2024-02-15T00:36:43;95006.47;;;4.35;73.70
23176;BME280;19910;42.652;23.332;2024-02-15T00:39:13;95010.84;;;4.54;74.36
23176;BME280;19910;42.652;23.332;2024-02-15T00:41:43;95002.13;;;4.39;73.93
23176;BME280;19910;42.652;23.332;2024-02-15T00:44:10;95002.19;;;4.28;74.23
23176;BME280;19910;42.652;23.332;2024-02-15T00:46:39;95005.88;;;4.38;73.32
23176;BME280;19910;42.652;23.332;2024-02-15T00:49:07;95009.59;;;4.47;74.26
23176;BME280;19910;42.652;23.332;2024-02-15T00:51:36;95002.06;;;4.49;73.34
23176;BME280;19910;42.652;23.332;2024-02-15T00:54:03;95005.09;;;4.37;73.82
23176;BME280;19910;42.652;23.332;2024-02-15T00:56:30;95011.88;;;4.24;74.05
23176;BME280;19910;42.652;23.332;2024-02-15T00:58:59;95010.69;;;4.41;73.97
23176;BME280;19910;42.652;23.332;2024-02-15T01:01:26;95011.19;;;4.48;73.43
23176;BME280;19910;42.652;23.332;2024-02-15T01:03:53;95009.59;;;4.47;73.80
23176;BME280;19910;42.652;23.332;2024-02-15T01:06:20;95007.47;;;4.39;73.74
23176;BME280;19910;42.652;23.332;2024-02-15T01:08:48;95003.16;;;4.43;73.78
23176;BME280;19910;42.652;23.332;2024-02-15T01:11:16;94997.56;;;4.39;72.85
23176;BME280;19910;42.652;23.332;2024-02-15T01:13:43;95012.44;;;4.21;73.82
23176;BME280;19910;42.652;23.332;2024-02-15T01:16:10;95009.16;;;4.29;74.00
23176;BME280;19910;42.652;23.332;2024-02-15T01:18:40;95009.72;;;4.26;74.08
23176;BME280;19910;42.652;23.332;2024-02-15T01:21:06;95001.41;;;4.28;73.73
23176;BME280;19910;42.652;23.332;2024-02-15T01:23:34;95009.16;;;4.29;73.52
23176;BME280;19910;42.652;23.332;2024-02-15T01:26:03;94999.88;;;4.17;74.01
23176;BME280;19910;42.652;23.332;2024-02-15T01:28:30;95000.94;;;4.16;74.29
23176;BME280;19910;42.652;23.332;2024-02-15T01:30:57;95003.31;;;4.22;73.72
23176;BME280;19910;42.652;23.332;2024-02-15T01:33:24;95001.75;;;4.16;73.88
23176;BME280;19910;42.652;23.332;2024-02-15T01:35:52;95001.72;;;4.21;74.23
23176;BME280;19910;42.652;23.332;2024-02-15T01:38:18;95010.88;;;4.10;74.06
23176;BME280;19910;42.652;23.332;2024-02-15T01:40:46;95009.81;;;4.11;74.54
23176;BME280;19910;42.652;23.332;2024-02-15T01:43:15;95007.91;;;4.17;74.12
23176;BME280;19910;42.652;23.332;2024-02-15T01:45:42;95007.19;;;4.01;74.15
23176;BME280;19910;42.652;23.332;2024-02-15T01:48:09;94998.53;;;4.14;73.99
23176;BME280;19910;42.652;23.332;2024-02-15T01:50:36;94997.38;;;4.25;73.65
23176;BME280;19910;42.652;23.332;2024-02-15T01:53:05;94996.34;;;4.21;74.40
23176;BME280;19910;42.652;23.332;2024-02-15T01:55:34;94996.25;;;4.37;74.68
23176;BME280;19910;42.652;23.332;2024-02-15T01:58:01;94996.28;;;4.32;73.91
23176;BME280;19910;42.652;23.332;2024-02-15T02:00:30;94998.19;;;4.26;73.57
23176;BME280;19910;42.652;23.332;2024-02-15T02:02:57;94995.38;;;4.07;74.55
23176;BME280;19910;42.652;23.332;2024-02-15T02:05:28;94998.50;;;4.19;73.93
23176;BME280;19910;42.652;23.332;2024-02-15T02:07:55;95000.13;;;4.15;74.15
23176;BME280;19910;42.652;23.332;2024-02-15T02:10:23;95004.34;;;4.26;73.85
23176;BME280;19910;42.652;23.332;2024-02-15T02:12:50;95005.47;;;4.20;74.14
23176;BME280;19910;42.652;23.332;2024-02-15T02:15:16;94999.59;;;4.13;73.87
23176;BME280;19910;42.652;23.332;2024-02-15T02:17:49;95005.53;;;4.10;73.92
23176;BME280;19910;42.652;23.332;2024-02-15T02:20:16;95008.97;;;4.16;74.08
23176;BME280;19910;42.652;23.332;2024-02-15T02:22:45;95016.25;;;4.10;74.30
23176;BME280;19910;42.652;23.332;2024-02-15T02:25:15;95016.81;;;4.07;74.51
23176;BME280;19910;42.652;23.332;2024-02-15T02:27:42;95022.97;;;4.08;74.44
23176;BME280;19910;42.652;23.332;2024-02-15T02:30:13;95007.13;;;4.11;73.99
23176;BME280;19910;42.652;23.332;2024-02-15T02:32:42;95020.81;;;4.10;74.24
23176;BME280;19910;42.652;23.332;2024-02-15T02:35:09;95014.66;;;4.09;74.00
23176;BME280;19910;42.652;23.332;2024-02-15T02:37:37;95009.22;;;4.19;73.90
23176;BME280;19910;42.652;23.332;2024-02-15T02:40:06;95016.25;;;4.10;74.58
23176;BME280;19910;42.652;23.332;2024-02-15T02:42:35;95013.72;;;4.29;73.61
23176;BME280;19910;42.652;23.332;2024-02-15T02:45:03;95018.34;;;4.18;73.93
23176;BME280;19910;42.652;23.332;2024-02-15T02:47:30;95018.59;;;4.22;73.75
23176;BME280;19910;42.652;23.332;2024-02-15T02:49:57;95019.44;;;4.12;74.11
23176;BME280;19910;42.652;23.332;2024-02-15T02:52:23;95018.41;;;4.08;74.05
23176;BME280;19910;42.652;23.332;2024-02-15T02:54:50;95020.31;;;4.08;74.30
23176;BME280;19910;42.652;23.332;2024-02-15T02:57:17;95023.28;;;4.01;74.13
23176;BME280;19910;42.652;23.332;2024-02-15T02:59:45;95025.41;;;3.99;74.69
23176;BME280;19910;42.652;23.332;2024-02-15T03:02:12;95026.97;;;4.10;74.20
23176;BME280;19910;42.652;23.332;2024-02-15T03:04:39;95019.44;;;4.12;74.03
23176;BME280;19910;42.652;23.332;2024-02-15T03:07:06;95032.31;;;4.10;74.41
23176;BME280;19910;42.652;23.332;2024-02-15T03:09:33;95027.56;;;4.02;74.53
23176;BME280;19910;42.652;23.332;2024-02-15T03:12:00;95041.00;;;3.92;74.81
23176;BME280;19910;42.652;23.332;2024-02-15T03:14:27;95039.66;;;3.95;74.75
23176;BME280;19910;42.652;23.332;2024-02-15T03:16:57;95033.13;;;4.11;74.00
23176;BME280;19910;42.652;23.332;2024-02-15T03:19:23;95049.00;;;3.97;74.02
23176;BME280;19910;42.652;23.332;2024-02-15T03:21:51;95035.72;;;3.72;74.73
23176;BME280;19910;42.652;23.332;2024-02-15T03:24:18;95036.50;;;3.82;74.87
23176;BME280;19910;42.652;23.332;2024-02-15T03:26:45;95042.09;;;3.86;75.36
23176;BME280;19910;42.652;23.332;2024-02-15T03:29:12;95043.75;;;3.77;75.17
23176;BME280;19910;42.652;23.332;2024-02-15T03:31:38;95057.16;;;3.72;75.53
23176;BME280;19910;42.652;23.332;2024-02-15T03:34:06;95055.53;;;3.81;74.61
23176;BME280;19910;42.652;23.332;2024-02-15T03:36:36;95054.53;;;3.62;75.55
23176;BME280;19910;42.652;23.332;2024-02-15T03:39:02;95052.13;;;3.65;75.70
23176;BME280;19910;42.652;23.332;2024-02-15T03:41:31;95040.84;;;3.68;75.42
23176;BME280;19910;42.652;23.332;2024-02-15T03:43:58;95045.47;;;3.47;75.97
23176;BME280;19910;42.652;23.332;2024-02-15T03:46:25;95052.94;;;3.55;76.24
23176;BME280;19910;42.652;23.332;2024-02-15T03:48:53;95050.78;;;3.57;75.95
23176;BME280;19910;42.652;23.332;2024-02-15T03:51:22;95045.47;;;3.47;76.20
23176;BME280;19910;42.652;23.332;2024-02-15T03:53:50;95053.47;;;3.57;76.31
23176;BME280;19910;42.652;23.332;2024-02-15T03:56:17;95054.25;;;3.63;76.79
23176;BME280;19910;42.652;23.332;2024-02-15T03:58:44;95052.88;;;3.71;75.65
23176;BME280;19910;42.652;23.332;2024-02-15T04:01:11;95046.53;;;3.51;76.41
23176;BME280;19910;42.652;23.332;2024-02-15T04:03:40;95048.09;;;3.63;76.38
23176;BME280;19910;42.652;23.332;2024-02-15T04:06:07;95040.31;;;3.66;75.86
23176;BME280;19910;42.652;23.332;2024-02-15T04:08:36;95051.56;;;3.68;75.87
23176;BME280;19910;42.652;23.332;2024-02-15T04:11:06;95051.25;;;3.75;75.96
23176;BME280;19910;42.652;23.332;2024-02-15T04:13:38;95044.38;;;3.53;76.08
23176;BME280;19910;42.652;23.332;2024-02-15T04:16:08;95039.63;;;3.40;76.54
23176;BME280;19910;42.652;23.332;2024-02-15T04:18:34;95055.59;;;3.66;76.05
23176;BME280;19910;42.652;23.332;2024-02-15T04:21:03;95056.66;;;3.65;76.06
23176;BME280;19910;42.652;23.332;2024-02-15T04:23:32;95054.78;;;3.60;76.50
23176;BME280;19910;42.652;23.332;2024-02-15T04:26:00;95058.28;;;3.55;76.25
23176;BME280;19910;42.652;23.332;2024-02-15T04:28:28;95054.84;;;3.50;76.61
23176;BME280;19910;42.652;23.332;2024-02-15T04:30:56;95060.97;;;3.61;76.19
23176;BME280;19910;42.652;23.332;2024-02-15T04:33:23;95065.78;;;3.64;75.99
23176;BME280;19910;42.652;23.332;2024-02-15T04:35:50;95056.09;;;3.78;76.26
23176;BME280;19910;42.652;23.332;2024-02-15T04:38:17;95062.06;;;3.54;75.63
23176;BME280;19910;42.652;23.332;2024-02-15T04:40:44;95056.19;;;3.47;76.50
23176;BME280;19910;42.652;23.332;2024-02-15T04:43:12;95069.53;;;3.63;76.74
23176;BME280;19910;42.652;23.332;2024-02-15T04:45:41;95074.06;;;3.67;76.88
23176;BME280;19910;42.652;23.332;2024-02-15T04:48:07;95067.88;;;3.72;75.96
23176;BME280;19910;42.652;23.332;2024-02-15T04:50:34;95072.78;;;3.54;76.42
23176;BME280;19910;42.652;23.332;2024-02-15T04:53:01;95072.78;;;3.44;77.03
23176;BME280;19910;42.652;23.332;2024-02-15T04:55:28;95071.19;;;3.43;77.33
23176;BME280;19910;42.652;23.332;2024-02-15T04:57:56;95075.16;;;3.56;76.29
23176;BME280;19910;42.652;23.332;2024-02-15T05:00:24;95080.72;;;3.80;79.09
23176;BME280;19910;42.652;23.332;2024-02-15T05:02:52;95080.84;;;3.39;77.03
23176;BME280;19910;42.652;23.332;2024-02-15T05:05:19;95079.75;;;3.50;76.60
23176;BME280;19910;42.652;23.332;2024-02-15T05:07:47;95089.88;;;3.58;76.30
23176;BME280;19910;42.652;23.332;2024-02-15T05:10:14;95093.09;;;3.66;76.45
23176;BME280;19910;42.652;23.332;2024-02-15T05:12:42;95098.53;;;3.40;76.70
23176;BME280;19910;42.652;23.332;2024-02-15T05:15:09;95108.97;;;3.37;77.38
23176;BME280;19910;42.652;23.332;2024-02-15T05:17:38;95101.19;;;3.35;77.09
23176;BME280;19910;42.652;23.332;2024-02-15T05:20:08;95105.47;;;3.41;77.46
23176;BME280;19910;42.652;23.332;2024-02-15T05:22:37;95095.53;;;3.42;77.02
23176;BME280;19910;42.652;23.332;2024-02-15T05:25:06;95109.22;;;3.30;76.87
23176;BME280;19910;42.652;23.332;2024-02-15T05:27:33;95101.75;;;3.22;77.66
23176;BME280;19910;42.652;23.332;2024-02-15T05:30:02;95105.22;;;3.38;77.32
23176;BME280;19910;42.652;23.332;2024-02-15T05:32:32;95111.34;;;3.48;77.17
23176;BME280;19910;42.652;23.332;2024-02-15T05:35:00;95112.94;;;3.54;76.70
23176;BME280;19910;42.652;23.332;2024-02-15T05:37:27;95110.28;;;3.54;77.02
23176;BME280;19910;42.652;23.332;2024-02-15T05:39:54;95117.75;;;3.68;77.03
23176;BME280;19910;42.652;23.332;2024-02-15T05:42:20;95122.84;;;3.49;76.90
23176;BME280;19910;42.652;23.332;2024-02-15T05:44:47;95122.59;;;3.45;76.67
23176;BME280;19910;42.652;23.332;2024-02-15T05:47:15;95123.94;;;3.43;76.92
23176;BME280;19910;42.652;23.332;2024-02-15T05:49:42;95117.75;;;3.63;76.24
23176;BME280;19910;42.652;23.332;2024-02-15T05:52:11;95118.81;;;3.56;76.35
23176;BME280;19910;42.652;23.332;2024-02-15T05:54:38;95121.50;;;3.56;76.68
23176;BME280;19910;42.652;23.332;2024-02-15T05:57:07;95121.53;;;3.41;76.96
23176;BME280;19910;42.652;23.332;2024-02-15T05:59:34;95126.56;;;3.63;76.48
23176;BME280;19910;42.652;23.332;2024-02-15T06:02:01;95128.22;;;3.49;77.06
23176;BME280;19910;42.652;23.332;2024-02-15T06:04:28;95134.88;;;3.62;76.39
23176;BME280;19910;42.652;23.332;2024-02-15T06:06:55;95138.16;;;3.38;76.10
23176;BME280;19910;42.652;23.332;2024-02-15T06:09:27;95125.28;;;3.50;76.60
23176;BME280;19910;42.652;23.332;2024-02-15T06:11:55;95137.56;;;3.56;76.60
23176;BME280;19910;42.652;23.332;2024-02-15T06:14:23;95139.44;;;3.61;76.54
23176;BME280;19910;42.652;23.332;2024-02-15T06:16:50;95145.88;;;3.60;76.20
23176;BME280;19910;42.652;23.332;2024-02-15T06:19:17;95144.31;;;3.39;76.83
23176;BME280;19910;42.652;23.332;2024-02-15T06:21:44;95151.25;;;3.50;76.64
23176;BME280;19910;42.652;23.332;2024-02-15T06:24:12;95161.66;;;3.56;76.13
23176;BME280;19910;42.652;23.332;2024-02-15T06:26:40;95157.91;;;3.68;76.57
23176;BME280;19910;42.652;23.332;2024-02-15T06:29:07;95160.03;;;3.76;76.23
23176;BME280;19910;42.652;23.332;2024-02-15T06:31:51;95171.81;;;3.70;76.18
23176;BME280;19910;42.652;23.332;2024-02-15T06:34:35;95165.41;;;3.55;76.05
23176;BME280;19910;42.652;23.332;2024-02-15T06:37:35;95165.66;;;3.69;76.00
23176;BME280;19910;42.652;23.332;2024-02-15T06:40:19;95174.00;;;3.68;76.31
23176;BME280;19910;42.652;23.332;2024-02-15T06:42:47;95170.22;;;3.79;75.71
23176;BME280;19910;42.652;23.332;2024-02-15T06:45:14;95174.25;;;3.66;75.58
23176;BME280;19910;42.652;23.332;2024-02-15T06:47:41;95170.78;;;3.66;76.45
23176;BME280;19910;42.652;23.332;2024-02-15T06:50:10;95169.66;;;3.92;75.47
23176;BME280;19910;42.652;23.332;2024-02-15T06:52:37;95158.97;;;3.72;75.70
23176;BME280;19910;42.652;23.332;2024-02-15T06:55:07;95178.22;;;3.89;75.50
23176;BME280;19910;42.652;23.332;2024-02-15T06:57:34;95177.13;;;4.05;75.00
23176;BME280;19910;42.652;23.332;2024-02-15T07:00:02;95181.09;;;4.13;75.22
23176;BME280;19910;42.652;23.332;2024-02-15T07:02:29;95174.69;;;4.09;74.24
23176;BME280;19910;42.652;23.332;2024-02-15T07:04:58;95170.69;;;4.06;74.90
23176;BME280;19910;42.652;23.332;2024-02-15T07:07:25;95171.78;;;3.95;74.73
23176;BME280;19910;42.652;23.332;2024-02-15T07:09:51;95168.75;;;4.12;73.95
23176;BME280;19910;42.652;23.332;2024-02-15T07:12:19;95166.97;;;3.92;74.82
23176;BME280;19910;42.652;23.332;2024-02-15T07:14:47;95161.50;;;4.22;74.26
23176;BME280;19910;42.652;23.332;2024-02-15T07:17:15;95157.66;;;4.44;73.57
23176;BME280;19910;42.652;23.332;2024-02-15T07:19:43;95163.28;;;4.42;73.13
23176;BME280;19910;42.652;23.332;2024-02-15T07:22:10;95160.84;;;4.51;72.76
23176;BME280;19910;42.652;23.332;2024-02-15T07:24:37;95152.13;;;4.74;71.87
23176;BME280;19910;42.652;23.332;2024-02-15T07:27:05;95155.34;;;4.71;71.55
23176;BME280;19910;42.652;23.332;2024-02-15T07:29:34;95161.88;;;4.55;71.25
23176;BME280;19910;42.652;23.332;2024-02-15T07:32:03;95155.91;;;4.68;71.37
23176;BME280;19910;42.652;23.332;2024-02-15T07:34:34;95158.19;;;4.46;71.69
23176;BME280;19910;42.652;23.332;2024-02-15T07:37:02;95160.38;;;4.34;71.94
23176;BME280;19910;42.652;23.332;2024-02-15T07:39:29;95153.69;;;4.26;72.11
23176;BME280;19910;42.652;23.332;2024-02-15T07:41:56;95153.00;;;4.05;72.89
23176;BME280;19910;42.652;23.332;2024-02-15T07:44:23;95151.81;;;4.37;71.92
23176;BME280;19910;42.652;23.332;2024-02-15T07:46:50;95144.78;;;4.41;71.23
23176;BME280;19910;42.652;23.332;2024-02-15T07:49:17;95144.78;;;4.41;71.40
23176;BME280;19910;42.652;23.332;2024-02-15T07:51:45;95148.59;;;4.29;72.31
23176;BME280;19910;42.652;23.332;2024-02-15T07:54:18;95148.50;;;4.50;71.60
23176;BME280;19910;42.652;23.332;2024-02-15T07:56:46;95143.19;;;4.84;70.16
23176;BME280;19910;42.652;23.332;2024-02-15T07:59:13;95139.06;;;5.02;70.70
23176;BME280;19910;42.652;23.332;2024-02-15T08:01:42;95134.25;;;4.98;69.53
23176;BME280;19910;42.652;23.332;2024-02-15T08:04:10;95142.56;;;4.97;69.57
23176;BME280;19910;42.652;23.332;2024-02-15T08:06:37;95140.34;;;4.65;70.10
23176;BME280;19910;42.652;23.332;2024-02-15T08:09:05;95145.53;;;4.95;70.46
23176;BME280;19910;42.652;23.332;2024-02-15T08:11:32;95135.63;;;5.30;69.33
23176;BME280;19910;42.652;23.332;2024-02-15T08:13:59;95123.56;;;5.56;67.97
23176;BME280;19910;42.652;23.332;2024-02-15T08:16:27;95126.41;;;5.65;68.00
23176;BME280;19910;42.652;23.332;2024-02-15T08:18:54;95120.34;;;5.54;68.10
23176;BME280;19910;42.652;23.332;2024-02-15T08:21:25;95130.56;;;5.81;67.41
23176;BME280;19910;42.652;23.332;2024-02-15T08:23:52;95121.88;;;5.60;68.05
23176;BME280;19910;42.652;23.332;2024-02-15T08:26:22;95123.16;;;5.68;68.31
23176;BME280;19910;42.652;23.332;2024-02-15T08:28:48;95125.34;;;5.66;68.49
23176;BME280;19910;42.652;23.332;2024-02-15T08:31:15;95125.44;;;5.56;68.96
23176;BME280;19910;42.652;23.332;2024-02-15T08:33:44;95117.69;;;5.49;68.98
23176;BME280;19910;42.652;23.332;2024-02-15T08:36:11;95124.06;;;5.58;69.17
23176;BME280;19910;42.652;23.332;2024-02-15T08:38:38;95122.81;;;5.75;68.90
23176;BME280;19910;42.652;23.332;2024-02-15T08:41:06;95130.28;;;5.54;68.34
23176;BME280;19910;42.652;23.332;2024-02-15T08:43:35;95125.00;;;5.72;67.34
23176;BME280;19910;42.652;23.332;2024-02-15T08:46:04;95127.97;;;6.00;67.38
23176;BME280;19910;42.652;23.332;2024-02-15T08:48:32;95124.25;;;5.96;67.61
23176;BME280;19910;42.652;23.332;2024-02-15T08:50:59;95125.69;;;6.12;67.89
23176;BME280;19910;42.652;23.332;2024-02-15T08:53:26;95125.44;;;6.09;67.46
23176;BME280;19910;42.652;23.332;2024-02-15T08:55:52;95126.53;;;5.79;67.78
23176;BME280;19910;42.652;23.332;2024-02-15T08:58:19;95122.75;;;6.09;67.79
23176;BME280;19910;42.652;23.332;2024-02-15T09:00:48;95120.41;;;6.02;68.68
23176;BME280;19910;42.652;23.332;2024-02-15T09:03:14;95118.41;;;5.89;67.96
23176;BME280;19910;42.652;23.332;2024-02-15T09:05:41;95118.34;;;5.94;68.01
23176;BME280;19910;42.652;23.332;2024-02-15T09:08:08;95109.53;;;5.88;68.59
23176;BME280;19910;42.652;23.332;2024-02-15T09:10:34;95103.44;;;5.78;67.84
23176;BME280;19910;42.652;23.332;2024-02-15T09:13:04;95109.84;;;6.29;67.52
23176;BME280;19910;42.652;23.332;2024-02-15T09:15:31;95105.78;;;6.13;67.07
23176;BME280;19910;42.652;23.332;2024-02-15T09:17:59;95094.41;;;6.40;66.77
23176;BME280;19910;42.652;23.332;2024-02-15T09:20:26;95110.66;;;6.30;67.04
23176;BME280;19910;42.652;23.332;2024-02-15T09:22:54;95103.38;;;6.12;67.47
23176;BME280;19910;42.652;23.332;2024-02-15T09:25:22;95104.25;;;6.02;68.13
23176;BME280;19910;42.652;23.332;2024-02-15T09:27:49;95108.16;;;5.91;67.62
23176;BME280;19910;42.652;23.332;2024-02-15T09:30:17;95104.09;;;6.17;67.52
23176;BME280;19910;42.652;23.332;2024-02-15T09:32:44;95103.31;;;6.35;67.35
23176;BME280;19910;42.652;23.332;2024-02-15T09:35:12;95099.78;;;6.59;66.90
23176;BME280;19910;42.652;23.332;2024-02-15T09:37:44;95100.44;;;6.88;65.30
23176;BME280;19910;42.652;23.332;2024-02-15T09:40:12;95091.75;;;7.10;65.17
23176;BME280;19910;42.652;23.332;2024-02-15T09:42:40;95092.44;;;6.83;65.02
23176;BME280;19910;42.652;23.332;2024-02-15T09:45:10;95095.34;;;6.68;65.31
23176;BME280;19910;42.652;23.332;2024-02-15T09:47:38;95090.69;;;6.92;64.55
23176;BME280;19910;42.652;23.332;2024-02-15T09:50:06;95102.31;;;7.06;63.82
23176;BME280;19910;42.652;23.332;2024-02-15T09:52:35;95089.00;;;7.29;63.98
23176;BME280;19910;42.652;23.332;2024-02-15T09:55:03;95087.53;;;7.36;64.00
23176;BME280;19910;42.652;23.332;2024-02-15T09:57:30;95080.69;;;7.71;63.29
23176;BME280;19910;42.652;23.332;2024-02-15T09:59:58;95087.25;;;7.38;63.33
23176;BME280;19910;42.652;23.332;2024-02-15T10:02:26;95081.47;;;7.58;63.60
23176;BME280;19910;42.652;23.332;2024-02-15T10:04:53;95073.94;;;7.88;62.60
23176;BME280;19910;42.652;23.332;2024-02-15T10:07:22;95078.63;;;7.96;62.22
23176;BME280;19910;42.652;23.332;2024-02-15T10:09:50;95067.53;;;8.11;61.92
23176;BME280;19910;42.652;23.332;2024-02-15T10:12:17;95070.13;;;7.75;62.71
23176;BME280;19910;42.652;23.332;2024-02-15T10:14:48;95074.09;;;7.50;62.33
23176;BME280;19910;42.652;23.332;2024-02-15T10:17:18;95065.50;;;7.48;62.75
23176;BME280;19910;42.652;23.332;2024-02-15T10:19:45;95060.88;;;7.35;62.28
23176;BME280;19910;42.652;23.332;2024-02-15T10:22:28;95051.31;;;7.56;62.88
23176;BME280;19910;42.652;23.332;2024-02-15T10:25:10;95055.25;;;7.18;62.87
23176;BME280;19910;42.652;23.332;2024-02-15T10:27:37;95051.09;;;7.39;62.98
23176;BME280;19910;42.652;23.332;2024-02-15T10:30:14;95040.97;;;7.63;63.10
23176;BME280;19910;42.652;23.332;2024-02-15T10:32:42;95040.56;;;7.83;62.34
23176;BME280;19910;42.652;23.332;2024-02-15T10:35:09;95046.06;;;8.06;62.69
23176;BME280;19910;42.652;23.332;2024-02-15T10:37:41;95038.94;;;8.37;60.65
23176;BME280;19910;42.652;23.332;2024-02-15T10:40:11;95045.28;;;7.92;61.31
23176;BME280;19910;42.652;23.332;2024-02-15T10:42:40;95032.16;;;8.12;61.20
23176;BME280;19910;42.652;23.332;2024-02-15T10:45:09;95035.16;;;7.83;61.04
23176;BME280;19910;42.652;23.332;2024-02-15T10:47:37;95024.97;;;7.80;61.29
23176;BME280;19910;42.652;23.332;2024-02-15T10:50:06;95021.59;;;8.52;61.65
23176;BME280;19910;42.652;23.332;2024-02-15T10:52:37;95013.41;;;8.57;60.94
23176;BME280;19910;42.652;23.332;2024-02-15T10:55:10;95015.44;;;8.74;60.47
23176;BME280;19910;42.652;23.332;2024-02-15T10:57:41;95015.06;;;8.67;60.08
23176;BME280;19910;42.652;23.332;2024-02-15T11:00:12;95014.19;;;8.80;59.86
23176;BME280;19910;42.652;23.332;2024-02-15T11:03:00;95006.41;;;8.56;60.24
23176;BME280;19910;42.652;23.332;2024-02-15T11:05:32;95010.94;;;8.69;60.32
23176;BME280;19910;42.652;23.332;2024-02-15T11:08:00;95014.69;;;8.60;59.51
23176;BME280;19910;42.652;23.332;2024-02-15T11:10:30;95002.16;;;8.64;59.87
23176;BME280;19910;42.652;23.332;2024-02-15T11:12:58;95004.53;;;8.29;61.47
23176;BME280;19910;42.652;23.332;2024-02-15T11:15:43;94995.78;;;8.82;60.29
23176;BME280;19910;42.652;23.332;2024-02-15T11:18:41;95004.84;;;8.64;61.12
23176;BME280;19910;42.652;23.332;2024-02-15T11:21:09;94997.63;;;8.95;61.16
23176;BME280;19910;42.652;23.332;2024-02-15T11:23:36;94994.25;;;9.12;59.19
23176;BME280;19910;42.652;23.332;2024-02-15T11:26:08;94995.28;;;9.55;57.98
23176;BME280;19910;42.652;23.332;2024-02-15T11:28:39;94986.78;;;9.17;58.89
23176;BME280;19910;42.652;23.332;2024-02-15T11:31:07;94992.03;;;9.14;57.90
23176;BME280;19910;42.652;23.332;2024-02-15T11:33:34;94985.47;;;9.06;58.93
23176;BME280;19910;42.652;23.332;2024-02-15T11:36:02;94987.50;;;9.01;58.95
23176;BME280;19910;42.652;23.332;2024-02-15T11:38:30;94989.53;;;8.95;58.61
23176;BME280;19910;42.652;23.332;2024-02-15T11:41:06;94989.16;;;9.10;58.37
23176;BME280;19910;42.652;23.332;2024-02-15T11:44:01;94991.84;;;9.10;57.96
23176;BME280;19910;42.652;23.332;2024-02-15T11:46:28;94988.91;;;8.98;58.25
23176;BME280;19910;42.652;23.332;2024-02-15T11:48:58;94983.44;;;9.43;57.40
23176;BME280;19910;42.652;23.332;2024-02-15T11:51:30;94987.72;;;9.44;56.98
23176;BME280;19910;42.652;23.332;2024-02-15T11:54:03;94985.91;;;9.31;57.76
23176;BME280;19910;42.652;23.332;2024-02-15T11:56:48;94982.53;;;9.56;57.08
23176;BME280;19910;42.652;23.332;2024-02-15T11:59:17;94984.56;;;9.90;56.35
23176;BME280;19910;42.652;23.332;2024-02-15T12:01:54;94980.38;;;9.75;56.20
23176;BME280;19910;42.652;23.332;2024-02-15T12:04:39;94966.78;;;10.15;55.28
23176;BME280;19910;42.652;23.332;2024-02-15T12:07:23;94971.00;;;10.38;54.40
23176;BME280;19910;42.652;23.332;2024-02-15T12:10:04;94964.66;;;9.38;57.54
23176;BME280;19910;42.652;23.332;2024-02-15T12:12:52;94960.25;;;9.59;57.23
23176;BME280;19910;42.652;23.332;2024-02-15T12:15:36;94969.59;;;9.92;57.00
23176;BME280;19910;42.652;23.332;2024-02-15T12:18:20;94959.84;;;10.22;56.05
23176;BME280;19910;42.652;23.332;2024-02-15T12:21:09;94963.44;;;10.18;56.24
23176;BME280;19910;42.652;23.332;2024-02-15T12:23:39;94962.94;;;9.50;57.05
23176;BME280;19910;42.652;23.332;2024-02-15T12:26:06;94962.34;;;9.22;57.98
23176;BME280;19910;42.652;23.332;2024-02-15T12:28:36;94957.28;;;9.30;57.86
23176;BME280;19910;42.652;23.332;2024-02-15T12:31:04;94957.28;;;9.30;57.56
23176;BME280;19910;42.652;23.332;2024-02-15T12:33:33;94953.94;;;9.63;56.43
23176;BME280;19910;42.652;23.332;2024-02-15T12:36:06;94956.84;;;9.84;57.31
23176;BME280;19910;42.652;23.332;2024-02-15T12:38:34;94962.72;;;9.69;56.21
23176;BME280;19910;42.652;23.332;2024-02-15T12:41:03;94950.66;;;9.84;56.99
23176;BME280;19910;42.652;23.332;2024-02-15T12:43:30;94945.38;;;9.70;56.26
23176;BME280;19910;42.652;23.332;2024-02-15T12:45:58;94945.03;;;10.37;55.57
23176;BME280;19910;42.652;23.332;2024-02-15T12:48:25;94940.56;;;10.24;55.31
23176;BME280;19910;42.652;23.332;2024-02-15T12:50:52;94943.91;;;10.29;55.75
23176;BME280;19910;42.652;23.332;2024-02-15T12:53:23;94947.91;;;9.75;56.86
23176;BME280;19910;42.652;23.332;2024-02-15T12:55:53;94941.50;;;10.28;55.81
23176;BME280;19910;42.652;23.332;2024-02-15T12:58:21;94937.53;;;10.34;55.38
23176;BME280;19910;42.652;23.332;2024-02-15T13:00:50;94939.28;;;10.30;56.85
23176;BME280;19910;42.652;23.332;2024-02-15T13:03:22;94937.03;;;10.66;54.72
23176;BME280;19910;42.652;23.332;2024-02-15T13:05:49;94932.75;;;10.57;54.57
23176;BME280;19910;42.652;23.332;2024-02-15T13:08:17;94929.06;;;10.53;55.64
23176;BME280;19910;42.652;23.332;2024-02-15T13:10:44;94934.50;;;10.53;55.40